Time;durP1;ratioP1;P1;durP2;ratioP2;P2;SDS_P1;SDS_P2;PMS_P1;PMS_P2;Temp;Humidity;BMP_temperature;BMP_pressure;BME280_temperature;BME280_humidity;BME280_pressure;Samples;Min_cycle;Max_cycle;Signal;HPM_P1;HPM_P2
2022/09/28 00:01:24;;;;;;;;;17.00;16.40;;;;;19.82;67.83;98168.69;5048750;28;8875;-75
2022/09/28 00:03:56;;;;;;;;;16.00;13.40;;;;;19.97;68.33;98166.91;5048553;28;8899;-75
2022/09/28 00:06:26;;;;;;;;;16.00;13.60;;;;;20.12;68.05;98162.47;5066356;28;8877;-76
2022/09/28 00:08:56;;;;;;;;;17.40;16.60;;;;;20.24;67.81;98160.84;5048405;28;8856;-75
2022/09/28 00:11:26;;;;;;;;;19.20;16.20;;;;;19.72;67.19;98170.22;5054046;28;8880;-75
2022/09/28 00:13:58;;;;;;;;;18.00;16.80;;;;;19.86;67.39;98172.84;5090294;28;8868;-74
2022/09/28 00:16:29;;;;;;;;;13.80;13.80;;;;;19.39;67.40;98175.66;5090423;28;8850;-74
2022/09/28 00:18:58;;;;;;;;;17.60;16.80;;;;;19.18;67.36;98178.59;5072017;28;8877;-76
2022/09/28 00:21:28;;;;;;;;;17.80;16.40;;;;;18.35;70.93;98193.75;5090383;28;8858;-75
2022/09/28 00:24:13;;;;;;;;;21.40;20.00;;;;;17.85;73.81;98197.31;5054213;28;8908;-74
2022/09/28 00:26:45;;;;;;;;;10.40;9.40;;;;;17.41;73.94;98201.25;5090551;28;8850;-78
2022/09/28 00:29:17;;;;;;;;;8.40;8.40;;;;;17.10;74.14;98196.63;5071868;28;8915;-76
2022/09/28 00:31:46;;;;;;;;;9.80;8.80;;;;;16.68;76.31;98201.22;5071734;28;8845;-75
2022/09/28 00:34:16;;;;;;;;;8.40;8.40;;;;;16.80;75.61;98191.88;5055416;28;8878;-75
2022/09/28 00:36:46;;;;;;;;;8.40;8.40;;;;;16.69;76.02;98195.03;5072309;28;8860;-75
2022/09/28 00:39:16;;;;;;;;;5.20;5.20;;;;;16.56;75.17;98201.81;5076624;28;8865;-73
2022/09/28 00:41:46;;;;;;;;;5.40;5.40;;;;;16.61;75.34;98197.16;5068415;28;8966;-75
2022/09/28 00:44:36;;;;;;;;;5.80;5.80;;;;;16.73;74.40;98196.59;5036605;28;8945;-75
2022/09/28 00:47:32;;;;;;;;;4.80;4.80;;;;;16.65;74.42;98198.72;5090014;28;9600;-74
2022/09/28 00:50:05;;;;;;;;;4.20;4.20;;;;;16.97;72.69;98185.84;4992764;28;9614;-74
2022/09/28 00:52:39;;;;;;;;;4.60;4.40;;;;;17.32;71.74;98189.38;4992848;28;8887;-76
2022/09/28 00:55:12;;;;;;;;;3.00;3.00;;;;;17.45;70.00;98171.19;5025528;28;9022;-74
2022/09/28 00:57:45;;;;;;;;;3.00;3.00;;;;;17.58;69.95;98184.59;5024723;28;9041;-74
2022/09/28 01:00:14;;;;;;;;;2.40;2.40;;;;;17.42;68.19;98181.88;5008494;28;8986;-75
2022/09/28 01:02:44;;;;;;;;;2.00;2.00;;;;;17.40;66.39;98181.09;5025251;28;8860;-74
2022/09/28 01:05:13;;;;;;;;;2.00;2.00;;;;;17.43;66.62;98190.63;4960607;28;8863;-75
2022/09/28 01:07:44;;;;;;;;;4.00;3.00;;;;;17.44;66.83;98180.00;4993140;28;8886;-76
2022/09/28 01:10:15;;;;;;;;;2.00;2.00;;;;;17.20;66.22;98178.59;4993868;28;8848;-74
2022/09/28 01:12:43;;;;;;;;;2.20;2.00;;;;;17.21;66.18;98175.03;5025417;28;9005;-75
2022/09/28 01:15:13;;;;;;;;;1.00;0.80;;;;;16.91;66.75;98191.41;5023985;28;8879;-75
2022/09/28 01:18:02;;;;;;;;;2.00;2.00;;;;;16.56;67.32;98192.13;5007766;28;8850;-74
2022/09/28 01:20:56;;;;;;;;;2.20;2.20;;;;;16.41;68.55;98191.97;5025234;28;8871;-74
2022/09/28 01:24:00;;;;;;;;;2.80;2.00;;;;;16.08;69.97;98201.31;5005737;28;9002;-74
2022/09/28 01:26:46;;;;;;;;;3.20;2.00;;;;;16.06;70.05;98189.19;4965162;28;8899;-73
2022/09/28 01:29:30;;;;;;;;;1.60;1.60;;;;;15.78;71.11;98196.53;4997839;28;9584;-74
2022/09/28 01:32:12;;;;;;;;;2.40;2.00;;;;;15.57;71.86;98192.97;5022320;28;9292;-74
2022/09/28 01:34:48;;;;;;;;;1.40;1.40;;;;;15.59;72.11;98187.66;4962994;28;8901;-73
2022/09/28 01:37:20;;;;;;;;;2.00;2.00;;;;;15.58;71.94;98176.31;5043981;28;8857;-73
2022/09/28 01:39:51;;;;;;;;;2.00;2.00;;;;;15.74;71.08;98184.41;5009717;28;8903;-73
2022/09/28 01:42:27;;;;;;;;;2.00;2.00;;;;;16.00;69.63;98171.91;5042147;28;8858;-72
2022/09/28 01:45:03;;;;;;;;;3.20;2.00;;;;;16.35;68.49;98170.31;5027904;28;8854;-73
2022/09/28 01:47:36;;;;;;;;;2.20;2.20;;;;;16.40;67.97;98180.59;5026595;28;8873;-74
2022/09/28 01:50:11;;;;;;;;;2.80;2.80;;;;;16.17;68.62;98179.88;5028107;28;8873;-75
2022/09/28 01:52:48;;;;;;;;;2.60;2.00;;;;;16.25;67.88;98179.53;5011270;28;8968;-74
2022/09/28 01:55:24;;;;;;;;;3.40;3.40;;;;;15.96;68.86;98186.09;5011490;28;8869;-75
2022/09/28 01:58:00;;;;;;;;;3.60;3.60;;;;;16.48;68.30;98181.13;5044542;28;8846;-75
2022/09/28 02:00:29;;;;;;;;;3.00;3.00;;;;;16.61;66.50;98189.28;5044321;28;8900;-74
2022/09/28 02:03:08;;;;;;;;;3.60;2.80;;;;;17.03;66.04;98175.03;5050971;28;8858;-75
2022/09/28 02:05:48;;;;;;;;;3.00;2.00;;;;;17.04;65.10;98179.34;5053057;28;8823;-74
2022/09/28 02:08:25;;;;;;;;;5.80;3.60;;;;;17.39;64.30;98175.88;5069165;28;8854;-73
2022/09/28 02:11:09;;;;;;;;;5.60;5.20;;;;;17.08;64.24;98180.91;5085756;28;8849;-75
2022/09/28 02:13:43;;;;;;;;;6.60;5.40;;;;;17.14;64.27;98188.53;5085794;28;8973;-74
2022/09/28 02:16:19;;;;;;;;;4.00;4.00;;;;;17.05;65.44;98172.28;5054817;28;8850;-75
2022/09/28 02:18:50;;;;;;;;;4.00;3.00;;;;;17.46;64.81;98164.97;5067911;28;8907;-73
2022/09/28 02:21:26;;;;;;;;;5.00;5.00;;;;;17.63;63.63;98169.38;5068014;28;8861;-74
2022/09/28 02:24:00;;;;;;;;;3.60;3.60;;;;;17.73;63.51;98167.09;5068372;28;8981;-74
2022/09/28 02:26:34;;;;;;;;;4.60;4.60;;;;;17.73;63.57;98178.53;5053530;28;8852;-72
2022/09/28 02:29:04;;;;;;;;;4.00;2.40;;;;;17.84;63.30;98172.69;5069231;28;8854;-75
2022/09/28 02:31:34;;;;;;;;;5.40;4.20;;;;;17.73;61.99;98185.56;5052279;28;8850;-74
2022/09/28 02:34:03;;;;;;;;;5.00;5.00;;;;;17.46;63.57;98186.03;5047300;28;8890;-74
2022/09/28 02:36:33;;;;;;;;;3.60;3.60;;;;;17.31;63.30;98200.00;5032005;28;8971;-74
2022/09/28 02:39:02;;;;;;;;;4.00;4.00;;;;;17.42;63.88;98204.72;5079185;28;8850;-75
2022/09/28 02:41:46;;;;;;;;;5.60;5.20;;;;;17.83;64.04;98199.16;4997166;28;8868;-75
2022/09/28 02:44:37;;;;;;;;;7.00;5.40;;;;;17.98;63.60;98202.81;5065101;28;8854;-76
2022/09/28 02:47:16;;;;;;;;;2.00;2.00;;;;;18.08;62.76;98204.84;5044570;28;8865;-76
2022/09/28 02:49:54;;;;;;;;;4.80;4.80;;;;;17.74;62.51;98214.50;5042036;28;8911;-74
2022/09/28 02:52:55;;;;;;;;;6.00;6.00;;;;;17.24;62.84;98220.53;5041661;28;8895;-74
2022/09/28 02:55:39;;;;;;;;;6.00;6.00;;;;;17.48;62.41;98226.34;4984507;28;8856;-73
2022/09/28 02:58:22;;;;;;;;;5.40;5.00;;;;;17.24;62.93;98231.06;4971969;28;8868;-75
2022/09/28 03:01:01;;;;;;;;;5.00;4.80;;;;;17.48;62.54;98233.41;4984542;28;8883;-75
2022/09/28 03:03:37;;;;;;;;;7.60;4.80;;;;;17.31;62.43;98231.59;4984747;28;8907;-74
2022/09/28 03:06:13;;;;;;;;;7.60;6.40;;;;;17.12;63.37;98236.94;4937033;28;8954;-74
2022/09/28 03:08:54;;;;;;;;;5.00;5.00;;;;;17.04;63.92;98234.66;4984638;28;8970;-74
2022/09/28 03:11:32;;;;;;;;;5.40;5.40;;;;;17.23;63.87;98229.34;4968362;28;8869;-73
2022/09/28 03:14:02;;;;;;;;;5.00;5.00;;;;;17.21;63.15;98222.47;4984164;28;9704;-74
2022/09/28 03:16:45;;;;;;;;;5.00;5.00;;;;;17.55;62.56;98226.91;4986037;28;8833;-73
2022/09/28 03:19:16;;;;;;;;;3.00;3.00;;;;;17.74;62.88;98229.47;5000909;28;8946;-75
2022/09/28 03:21:45;;;;;;;;;6.80;5.60;;;;;17.92;61.46;98227.72;5003767;28;8881;-74
2022/09/28 03:24:13;;;;;;;;;5.00;4.60;;;;;17.43;61.61;98235.41;4987337;28;8850;-74
2022/09/28 03:26:41;;;;;;;;;7.60;7.60;;;;;17.13;63.08;98243.91;4985372;28;8888;-73
2022/09/28 03:29:11;;;;;;;;;10.20;10.20;;;;;17.00;63.91;98245.44;4987305;28;8846;-75
2022/09/28 03:31:40;;;;;;;;;5.00;5.00;;;;;16.64;65.00;98252.31;5003635;28;8984;-75
2022/09/28 03:34:10;;;;;;;;;4.20;4.20;;;;;16.17;67.64;98269.31;5071401;28;8860;-75
2022/09/28 03:36:39;;;;;;;;;4.40;4.40;;;;;15.89;68.93;98264.38;5065360;28;8948;-74
2022/09/28 03:39:07;;;;;;;;;6.60;4.80;;;;;15.86;69.54;98261.91;5053988;28;8868;-75
2022/09/28 03:41:37;;;;;;;;;5.20;4.40;;;;;15.83;69.53;98269.91;5034131;28;8842;-75
2022/09/28 03:44:05;;;;;;;;;6.00;5.00;;;;;16.41;68.19;98265.63;5051323;28;8882;-75
2022/09/28 03:46:34;;;;;;;;;6.20;4.80;;;;;16.37;67.57;98262.31;5050836;28;8867;-75
2022/09/28 03:49:10;;;;;;;;;7.40;7.40;;;;;16.55;66.66;98269.38;5069192;28;8989;-74
2022/09/28 03:51:38;;;;;;;;;5.20;5.00;;;;;16.52;66.65;98264.25;5068973;28;8970;-75
2022/09/28 03:54:09;;;;;;;;;6.00;6.00;;;;;16.26;67.68;98254.91;5069525;28;8928;-74
2022/09/28 03:56:37;;;;;;;;;5.00;5.00;;;;;16.49;67.23;98251.22;5052775;28;8982;-74
2022/09/28 03:59:06;;;;;;;;;7.00;5.40;;;;;16.62;66.45;98242.78;5054667;28;8874;-74
2022/09/28 04:01:36;;;;;;;;;7.60;6.40;;;;;17.02;65.52;98238.31;5035611;28;8894;-75
2022/09/28 04:04:05;;;;;;;;;7.00;6.40;;;;;16.83;65.12;98233.06;5041108;28;8871;-74
2022/09/28 04:06:36;;;;;;;;;52.00;38.25;;;;;16.95;65.64;98228.03;5052918;28;8906;-76
2022/09/28 04:09:05;;;;;;;;;19.00;14.80;;;;;17.21;65.17;98227.72;5052994;28;8938;-74
2022/09/28 04:11:34;;;;;;;;;12.60;12.40;;;;;17.37;64.70;98235.72;5019375;28;8871;-77
2022/09/28 04:14:23;;;;;;;;;10.00;10.00;;;;;17.24;63.99;98240.75;5072863;28;8840;-75
2022/09/28 04:16:53;;;;;;;;;9.40;8.20;;;;;16.82;65.71;98260.28;5054341;28;8986;-73
2022/09/28 04:19:24;;;;;;;;;21.80;19.60;;;;;17.00;65.17;98263.88;5062731;28;8883;-73
2022/09/28 04:22:23;;;;;;;;;26.40;22.80;;;;;17.26;64.25;98260.00;4968914;28;8889;-74
2022/09/28 04:24:52;;;;;;;;;6.40;6.40;;;;;17.24;63.48;98248.63;4952811;28;8847;-76
2022/09/28 04:30:08;;;;;;;;;7.80;7.80;;;;;17.56;63.55;98225.13;4954322;28;8881;-74
2022/09/28 04:32:37;;;;;;;;;17.80;17.20;;;;;17.63;63.07;98224.72;4971827;28;8874;-73
2022/09/28 04:35:07;;;;;;;;;11.80;11.20;;;;;17.40;63.26;98217.13;4953095;28;8890;-76
2022/09/28 04:37:37;;;;;;;;;8.00;8.00;;;;;17.17;64.21;98234.09;4920505;28;8952;-75
2022/09/28 04:40:06;;;;;;;;;9.40;9.40;;;;;17.31;64.68;98237.72;4968184;28;8874;-75
2022/09/28 04:42:35;;;;;;;;;11.20;10.00;;;;;17.56;63.89;98240.94;4936271;28;9017;-74
2022/09/28 04:45:05;;;;;;;;;14.40;12.80;;;;;17.78;64.18;98238.94;4952227;28;9002;-76
2022/09/28 04:47:37;;;;;;;;;11.80;11.20;;;;;18.00;63.59;98241.34;4948736;28;8871;-74
2022/09/28 04:50:29;;;;;;;;;8.00;8.00;;;;;18.11;63.17;98236.38;4910965;29;8912;-73
2022/09/28 04:53:12;;;;;;;;;12.00;12.00;;;;;17.61;63.17;98249.47;4893645;29;8906;-75
2022/09/28 04:55:42;;;;;;;;;15.00;14.80;;;;;17.60;63.69;98246.00;4878682;29;8896;-76
2022/09/28 04:58:10;;;;;;;;;16.60;15.80;;;;;17.76;63.47;98253.97;4924109;28;8859;-76
2022/09/28 05:00:39;;;;;;;;;16.00;15.60;;;;;17.41;64.53;98246.06;4973543;28;8863;-73
2022/09/28 05:03:18;;;;;;;;;11.20;10.00;;;;;17.63;64.15;98247.63;4989743;28;9727;-74
2022/09/28 05:06:14;;;;;;;;;11.40;10.40;;;;;17.92;63.99;98248.81;4988991;28;8881;-74
2022/09/28 05:08:46;;;;;;;;;12.00;10.80;;;;;18.10;63.75;98263.66;4973175;28;9103;-75
2022/09/28 05:11:17;;;;;;;;;12.00;9.80;;;;;17.61;63.13;98270.56;4987863;28;8919;-75
2022/09/28 05:13:47;;;;;;;;;11.60;9.80;;;;;17.49;64.11;98270.25;5004602;28;8874;-74
2022/09/28 05:16:19;;;;;;;;;14.00;13.80;;;;;17.26;65.11;98281.91;4988620;28;8862;-74
2022/09/28 05:19:11;;;;;;;;;14.80;13.60;;;;;17.13;65.67;98280.78;4965397;28;8867;-76
2022/09/28 05:21:45;;;;;;;;;13.60;13.40;;;;;16.95;66.39;98287.75;4943614;28;8923;-74
2022/09/28 05:24:16;;;;;;;;;11.00;10.60;;;;;16.75;66.56;98283.41;4930173;28;8868;-75
2022/09/28 05:26:50;;;;;;;;;8.60;8.60;;;;;16.49;67.74;98284.59;4946241;28;8885;-74
2022/09/28 05:29:19;;;;;;;;;10.00;10.00;;;;;16.36;68.65;98290.38;4942185;28;8882;-77
2022/09/28 05:32:07;;;;;;;;;16.80;14.40;;;;;16.25;69.57;98291.78;4947264;28;8878;-75
2022/09/28 05:34:39;;;;;;;;;9.40;8.80;;;;;16.57;68.90;98291.19;4963746;28;9092;-74
2022/09/28 05:37:12;;;;;;;;;12.00;12.00;;;;;16.65;67.64;98290.84;4963126;28;8900;-74
2022/09/28 05:39:42;;;;;;;;;12.80;10.60;;;;;17.03;66.97;98297.94;4963759;28;8952;-75
2022/09/28 05:42:10;;;;;;;;;9.60;9.20;;;;;17.29;65.89;98288.81;4919038;29;9027;-76
2022/09/28 05:44:38;;;;;;;;;9.60;9.60;;;;;17.50;65.56;98279.88;4926154;28;8937;-74
2022/09/28 05:47:07;;;;;;;;;15.20;14.60;;;;;17.76;64.62;98268.94;4950939;28;9773;-74
2022/09/28 05:49:35;;;;;;;;;14.40;13.40;;;;;17.99;64.49;98271.28;4955982;28;8861;-75
2022/09/28 05:52:04;;;;;;;;;13.20;13.00;;;;;18.11;63.19;98281.22;4875833;28;8914;-75
2022/09/28 05:54:36;;;;;;;;;9.00;9.00;;;;;18.26;62.51;98286.63;4970303;28;8884;-75
2022/09/28 05:57:06;;;;;;;;;11.60;11.00;;;;;18.11;61.86;98297.06;5035774;28;8898;-76
2022/09/28 05:59:35;;;;;;;;;14.80;13.00;;;;;17.73;62.84;98301.56;5036193;28;8851;-76
2022/09/28 06:02:04;;;;;;;;;9.20;9.00;;;;;17.90;62.99;98303.41;5028663;28;8871;-75
2022/09/28 06:04:33;;;;;;;;;9.00;8.20;;;;;17.78;62.47;98299.56;5042182;28;8859;-74
2022/09/28 06:07:02;;;;;;;;;13.00;11.60;;;;;17.87;63.05;98298.31;5025894;28;9868;-75
2022/09/28 06:09:30;;;;;;;;;11.60;9.80;;;;;17.72;63.48;98299.88;5027737;28;8841;-74
2022/09/28 06:12:02;;;;;;;;;13.80;10.40;;;;;17.79;63.79;98300.41;5045181;28;8849;-75
2022/09/28 06:14:40;;;;;;;;;14.20;13.80;;;;;18.02;63.36;98300.16;5008692;28;8886;-76
2022/09/28 06:17:08;;;;;;;;;15.60;13.60;;;;;18.33;63.65;98290.66;5024891;28;8897;-77
2022/09/28 06:19:37;;;;;;;;;13.60;13.00;;;;;18.53;62.97;98292.25;4997770;28;8865;-76
2022/09/28 06:22:16;;;;;;;;;13.40;11.80;;;;;18.77;62.76;98284.81;5039180;28;9740;-74
2022/09/28 06:25:07;;;;;;;;;11.40;11.40;;;;;19.01;63.00;98287.06;5000062;28;10168;-76
2022/09/28 06:27:36;;;;;;;;;10.60;9.00;;;;;19.16;61.70;98286.19;4996773;28;8988;-77
2022/09/28 06:30:07;;;;;;;;;11.80;10.20;;;;;19.40;61.38;98289.25;5027460;28;8874;-75
2022/09/28 06:32:36;;;;;;;;;10.00;9.20;;;;;19.44;58.88;98296.06;4994436;28;9027;-74
2022/09/28 06:35:07;;;;;;;;;15.40;12.20;;;;;19.58;59.52;98291.78;5027090;28;9723;-75
2022/09/28 06:37:36;;;;;;;;;14.80;13.80;;;;;19.67;59.13;98280.66;5043819;28;8849;-76
2022/09/28 06:40:07;;;;;;;;;16.40;15.20;;;;;19.77;58.86;98281.88;5011246;28;8853;-75
2022/09/28 06:42:36;;;;;;;;;12.00;12.00;;;;;19.82;57.95;98276.31;5034299;28;8864;-73
2022/09/28 06:45:25;;;;;;;;;10.40;10.00;;;;;19.67;55.57;98275.38;5066088;28;8846;-75
2022/09/28 06:48:32;;;;;;;;;13.40;12.40;;;;;19.73;55.66;98274.19;5001636;28;8862;-73
2022/09/28 06:51:02;;;;;;;;;15.00;14.40;;;;;19.72;54.55;98276.00;4988663;28;8960;-75
2022/09/28 06:53:40;;;;;;;;;6.00;6.00;;;;;19.57;51.55;98275.06;4959907;28;8866;-73
2022/09/28 06:56:11;;;;;;;;;5.40;5.40;;;;;19.59;52.13;98293.50;5008081;28;8856;-70
2022/09/28 06:58:40;;;;;;;;;4.00;4.00;;;;;19.59;51.91;98296.16;5024503;28;9601;-68
2022/09/28 07:01:10;;;;;;;;;6.80;5.60;;;;;19.46;51.75;98303.91;4973463;28;8854;-69
2022/09/28 07:03:50;;;;;;;;;6.00;6.00;;;;;19.62;53.24;98306.53;4988724;28;8866;-72
2022/09/28 07:06:47;;;;;;;;;5.20;5.20;;;;;19.65;52.87;98303.72;5017388;28;8868;-69
2022/09/28 07:09:44;;;;;;;;;7.20;7.20;;;;;19.70;53.56;98311.38;4946845;29;9706;-75
2022/09/28 07:12:31;;;;;;;;;6.00;5.80;;;;;19.76;54.97;98317.22;4889832;29;8894;-75
2022/09/28 07:15:02;;;;;;;;;7.60;7.60;;;;;19.80;55.28;98312.59;4946950;29;8979;-75
2022/09/28 07:17:34;;;;;;;;;6.80;5.40;;;;;19.89;55.46;98295.34;4930159;29;8852;-75
2022/09/28 07:20:23;;;;;;;;;13.60;11.20;;;;;19.76;54.07;98303.13;4912593;29;8861;-76
2022/09/28 07:22:55;;;;;;;;;11.00;10.20;;;;;19.90;55.65;98313.75;4929517;28;9674;-75
2022/09/28 07:25:30;;;;;;;;;11.80;11.00;;;;;19.80;53.74;98302.00;4933857;28;8888;-75
2022/09/28 07:28:19;;;;;;;;;11.20;11.20;;;;;19.84;54.11;98300.88;4933924;28;8894;-77
2022/09/28 07:31:08;;;;;;;;;10.60;7.60;;;;;19.76;53.35;98306.63;4950273;28;8990;-75
2022/09/28 07:34:07;;;;;;;;;7.60;7.40;;;;;19.80;53.46;98304.66;4958631;28;8876;-75
2022/09/28 07:36:58;;;;;;;;;8.00;8.00;;;;;19.85;53.31;98307.91;4926162;28;8906;-76
2022/09/28 07:39:27;;;;;;;;;8.00;7.80;;;;;19.93;54.25;98316.22;4952010;28;8897;-76
2022/09/28 07:41:55;;;;;;;;;8.60;8.60;;;;;19.84;53.26;98317.59;4936062;28;8880;-77
2022/09/28 07:44:30;;;;;;;;;10.00;8.60;;;;;19.93;52.30;98324.16;4971382;28;8882;-78
2022/09/28 07:47:01;;;;;;;;;8.80;8.80;;;;;19.98;52.95;98315.94;5014642;28;10043;-76
2022/09/28 07:49:51;;;;;;;;;9.80;8.20;;;;;19.87;51.85;98311.31;5070279;28;8824;-75
2022/09/28 07:52:38;;;;;;;;;9.80;8.20;;;;;19.96;51.94;98318.69;5051515;28;9674;-75
2022/09/28 07:55:14;;;;;;;;;7.60;7.00;;;;;19.95;51.82;98314.34;5051053;28;8870;-76
2022/09/28 07:58:07;;;;;;;;;7.60;7.60;;;;;20.07;51.44;98310.09;5051229;28;8847;-75
2022/09/28 08:01:07;;;;;;;;;10.00;9.00;;;;;20.09;53.38;98295.00;5011009;28;8963;-73
2022/09/28 08:03:36;;;;;;;;;7.60;7.60;;;;;20.08;51.93;98300.41;5010010;28;8860;-76
2022/09/28 08:06:11;;;;;;;;;10.60;10.60;;;;;20.23;52.32;98299.47;4979084;28;8920;-74
2022/09/28 08:08:42;;;;;;;;;8.60;8.20;;;;;20.27;53.17;98293.03;4980674;28;8997;-75
2022/09/28 08:11:16;;;;;;;;;8.40;7.40;;;;;20.42;53.81;98296.56;4996343;28;8967;-75
2022/09/28 08:14:06;;;;;;;;;8.00;8.00;;;;;20.45;52.51;98299.88;5007223;28;8892;-74
2022/09/28 08:17:00;;;;;;;;;10.60;10.40;;;;;20.50;53.58;98299.59;4990855;28;8874;-74
2022/09/28 08:22:32;;;;;;;;;12.20;10.40;;;;;20.60;51.27;98292.81;4994492;28;8886;-75
2022/09/28 08:25:01;;;;;;;;;10.60;9.80;;;;;20.49;52.01;98300.53;4987632;28;9735;-75
2022/09/28 08:27:30;;;;;;;;;8.60;8.20;;;;;20.68;51.82;98288.81;4990413;28;8858;-74
2022/09/28 08:29:58;;;;;;;;;9.80;9.40;;;;;20.80;52.27;98286.25;5007004;28;8870;-76
2022/09/28 08:32:48;;;;;;;;;10.40;9.80;;;;;20.78;52.70;98284.69;4962921;28;8854;-76
2022/09/28 08:35:46;;;;;;;;;8.80;8.00;;;;;20.89;53.69;98284.84;4950514;28;8981;-72
2022/09/28 08:38:23;;;;;;;;;12.00;11.00;;;;;20.81;52.43;98281.81;4968277;28;8850;-75
2022/09/28 08:41:35;;;;;;;;;12.00;11.80;;;;;20.99;51.39;98270.06;4987964;28;8838;-74
2022/09/28 08:44:22;;;;;;;;;11.40;10.60;;;;;21.01;51.51;98267.31;4986425;28;8864;-74
2022/09/28 08:50:49;;;;;;;;;10.40;9.80;;;;;21.11;51.39;98256.97;4952985;28;8870;-74
2022/09/28 08:54:04;;;;;;;;;11.00;11.00;;;;;21.14;51.13;98251.47;4929676;29;8920;-74
2022/09/28 08:56:52;;;;;;;;;9.40;9.40;;;;;21.20;51.25;98253.72;4929468;29;8909;-74
2022/09/28 08:59:25;;;;;;;;;11.00;11.00;;;;;21.25;52.48;98248.09;4913174;29;8978;-75
2022/09/28 09:02:21;;;;;;;;;10.80;10.80;;;;;21.39;50.73;98248.06;4903615;29;8894;-76
2022/09/28 09:04:51;;;;;;;;;8.20;8.20;;;;;21.37;50.48;98255.28;4899128;29;8911;-78
2022/09/28 09:07:46;;;;;;;;;3.80;3.00;;;;;21.63;48.31;98256.25;4895036;29;9021;-74
2022/09/28 09:10:36;;;;;;;;;8.00;8.00;;;;;21.69;48.08;98247.88;4910022;29;8984;-74
2022/09/28 09:13:22;;;;;;;;;6.20;5.80;;;;;21.75;47.48;98246.59;4909808;29;8863;-74
2022/09/28 09:16:02;;;;;;;;;7.00;7.00;;;;;21.80;48.35;98239.19;4905918;29;9034;-75
2022/09/28 09:18:56;;;;;;;;;6.40;5.80;;;;;21.77;45.85;98229.59;4920988;28;8904;-75
2022/09/28 09:21:41;;;;;;;;;6.40;5.80;;;;;21.75;46.98;98228.03;4929141;29;8865;-74
2022/09/28 09:24:25;;;;;;;;;5.80;5.80;;;;;21.67;46.67;98217.94;4956487;28;8932;-75
2022/09/28 09:27:05;;;;;;;;;6.20;6.20;;;;;21.79;47.29;98214.44;5084103;28;8886;-76
2022/09/28 09:29:55;;;;;;;;;3.20;3.20;;;;;21.76;46.94;98219.13;5051302;28;8903;-74
2022/09/28 09:32:53;;;;;;;;;6.00;6.00;;;;;21.68;46.72;98217.00;5051307;28;8840;-75
2022/09/28 09:35:52;;;;;;;;;3.40;3.40;;;;;21.80;48.53;98225.91;5015119;28;8866;-77
2022/09/28 09:38:51;;;;;;;;;5.80;5.80;;;;;21.74;49.31;98224.53;5057975;28;8947;-75
2022/09/28 09:41:53;;;;;;;;;6.60;6.60;;;;;21.92;49.01;98225.06;5060717;28;8852;-76
2022/09/28 09:45:06;;;;;;;;;6.40;6.40;;;;;21.91;48.85;98223.38;5048997;28;8869;-75
2022/09/28 09:47:51;;;;;;;;;6.00;6.00;;;;;21.74;48.88;98235.16;5046705;28;8867;-78
2022/09/28 09:50:29;;;;;;;;;6.20;6.00;;;;;21.77;49.06;98226.97;5081992;28;8879;-70
2022/09/28 09:53:04;;;;;;;;;5.40;5.40;;;;;21.85;49.08;98230.91;5068012;28;8849;-68
2022/09/28 09:55:40;;;;;;;;;4.80;4.60;;;;;21.92;49.60;98233.03;5023470;28;8958;-69
2022/09/28 09:58:31;;;;;;;;;5.40;5.40;;;;;22.05;49.90;98226.91;5063813;28;8872;-69
2022/09/28 10:01:30;;;;;;;;;3.60;3.60;;;;;22.07;47.69;98217.84;5065008;28;9625;-67
2022/09/28 10:04:29;;;;;;;;;4.00;3.40;;;;;22.02;47.80;98219.97;5025185;28;8898;-70
2022/09/28 10:07:04;;;;;;;;;3.00;3.00;;;;;22.00;47.72;98212.13;5024388;28;8892;-71
2022/09/28 10:09:39;;;;;;;;;3.40;3.40;;;;;22.00;47.03;98221.88;4996537;28;8915;-69
2022/09/28 10:12:33;;;;;;;;;3.00;3.00;;;;;22.00;47.02;98228.06;4997083;28;8851;-70
2022/09/28 10:15:04;;;;;;;;;2.40;2.40;;;;;21.80;47.00;98231.22;5024786;28;8839;-69
2022/09/28 10:17:44;;;;;;;;;3.20;3.00;;;;;21.78;46.55;98222.53;4992333;28;8941;-68
2022/09/28 10:20:35;;;;;;;;;3.00;3.00;;;;;21.91;47.51;98214.56;5059898;28;8852;-69
2022/09/28 10:23:32;;;;;;;;;5.20;4.80;;;;;21.98;47.93;98206.09;5039083;28;8985;-70
2022/09/28 10:26:06;;;;;;;;;4.60;4.60;;;;;22.06;48.08;98197.59;5012126;28;8879;-69
2022/09/28 10:28:43;;;;;;;;;2.00;2.00;;;;;22.04;46.73;98188.00;5012037;28;8891;-70
2022/09/28 10:31:34;;;;;;;;;4.40;3.40;;;;;21.99;46.95;98194.50;5042015;28;8855;-68
2022/09/28 10:34:06;;;;;;;;;3.00;3.00;;;;;21.79;48.78;98189.72;5033435;28;9042;-67
2022/09/28 10:36:47;;;;;;;;;5.80;5.20;;;;;21.94;47.82;98199.28;5061190;28;8877;-69
2022/09/28 10:39:30;;;;;;;;;2.80;2.80;;;;;21.95;47.56;98202.78;5038895;28;8842;-70
2022/09/28 10:42:02;;;;;;;;;3.60;3.60;;;;;21.98;48.16;98200.78;5044568;28;8829;-71
2022/09/28 10:44:34;;;;;;;;;3.20;3.20;;;;;22.04;48.00;98204.81;5040202;28;8908;-72
2022/09/28 10:47:24;;;;;;;;;6.00;3.60;;;;;22.13;48.67;98190.03;5044698;28;8869;-67
2022/09/28 10:49:56;;;;;;;;;6.00;5.80;;;;;22.29;48.74;98185.38;5039452;28;8900;-69
2022/09/28 10:52:35;;;;;;;;;7.60;7.00;;;;;22.46;48.28;98180.69;5063063;28;8868;-74
2022/09/28 10:55:26;;;;;;;;;9.20;9.20;;;;;22.64;48.90;98181.16;5061483;28;8892;-76
2022/09/28 10:57:54;;;;;;;;;11.00;11.00;;;;;22.64;49.98;98170.53;5069158;28;8853;-74
2022/09/28 11:00:34;;;;;;;;;7.40;7.40;;;;;22.78;49.98;98171.25;5052344;28;8864;-76
2022/09/28 11:03:23;;;;;;;;;9.80;9.80;;;;;22.86;48.45;98161.88;5065767;28;8994;-78
2022/09/28 11:05:57;;;;;;;;;13.40;11.60;;;;;22.93;48.63;98163.09;5027761;28;8885;-75
2022/09/28 11:08:30;;;;;;;;;8.60;7.80;;;;;23.00;49.25;98158.19;5029139;28;8899;-75
2022/09/28 11:11:04;;;;;;;;;10.40;10.40;;;;;23.12;50.08;98162.63;5029372;28;8860;-72
2022/09/28 11:13:39;;;;;;;;;8.20;7.60;;;;;23.26;47.32;98164.25;5044664;28;8857;-75
2022/09/28 11:16:20;;;;;;;;;9.20;9.20;;;;;23.27;47.78;98161.50;5027778;28;8869;-76
2022/09/28 11:18:49;;;;;;;;;12.20;10.80;;;;;23.28;47.72;98159.66;5043767;28;8848;-75
2022/09/28 11:21:25;;;;;;;;;11.60;10.60;;;;;23.46;47.04;98160.06;5027407;28;8872;-72
2022/09/28 11:24:06;;;;;;;;;7.00;7.00;;;;;23.59;46.18;98150.22;5038050;28;8857;-74
2022/09/28 11:26:42;;;;;;;;;9.60;9.60;;;;;23.73;47.65;98155.31;5027616;28;9610;-74
2022/09/28 11:29:22;;;;;;;;;10.80;9.20;;;;;23.88;46.40;98153.31;5029987;28;8849;-72
2022/09/28 11:32:06;;;;;;;;;6.80;6.80;;;;;23.97;46.92;98143.78;5086281;28;8844;-74
2022/09/28 11:34:59;;;;;;;;;8.80;8.40;;;;;24.12;45.71;98147.91;5058611;28;9646;-73
2022/09/28 11:37:45;;;;;;;;;7.40;7.40;;;;;24.27;44.68;98151.16;5052742;28;8845;-73
2022/09/28 11:40:27;;;;;;;;;9.40;9.40;;;;;24.49;45.25;98141.44;5059940;28;8849;-73
2022/09/28 11:43:08;;;;;;;;;12.60;11.00;;;;;24.68;44.21;98138.19;5079127;28;9610;-76
2022/09/28 11:45:52;;;;;;;;;10.40;8.80;;;;;24.82;46.51;98142.38;5056878;28;8899;-74
2022/09/28 11:48:25;;;;;;;;;9.00;9.00;;;;;24.90;44.61;98131.94;5086889;28;8857;-74
2022/09/28 11:51:00;;;;;;;;;9.00;8.00;;;;;25.01;43.94;98134.56;5069210;28;8991;-76
2022/09/28 11:53:34;;;;;;;;;8.20;8.20;;;;;25.23;46.42;98132.81;5068747;28;9700;-75
2022/09/28 11:56:10;;;;;;;;;8.60;8.60;;;;;25.37;43.35;98132.50;5052109;28;8896;-76
2022/09/28 11:58:44;;;;;;;;;8.60;8.40;;;;;25.54;43.43;98122.19;5067960;28;8879;-73
2022/09/28 12:01:25;;;;;;;;;7.80;7.80;;;;;25.66;42.61;98121.16;5049355;28;8866;-74
2022/09/28 12:04:14;;;;;;;;;9.20;7.80;;;;;25.62;43.47;98106.41;5038134;28;8873;-71
2022/09/28 12:06:49;;;;;;;;;7.20;7.20;;;;;25.80;43.86;98103.94;5049102;28;8883;-80
2022/09/28 12:09:27;;;;;;;;;5.60;5.60;;;;;25.93;43.32;98109.13;5019887;28;8843;-79
2022/09/28 12:12:21;;;;;;;;;7.60;7.20;;;;;25.79;42.06;98102.28;5020248;28;9581;-77
2022/09/28 12:15:16;;;;;;;;;6.80;6.60;;;;;25.90;42.41;98110.22;5052611;28;8871;-78
2022/09/28 12:17:50;;;;;;;;;6.40;6.40;;;;;25.78;42.28;98096.06;5043007;28;9637;-79
2022/09/28 12:20:24;;;;;;;;;6.80;6.80;;;;;25.73;43.46;98089.44;5065455;28;8948;-74
2022/09/28 12:23:03;;;;;;;;;6.40;6.40;;;;;25.80;43.63;98090.59;5054415;28;8830;-74
2022/09/28 12:25:40;;;;;;;;;8.00;7.20;;;;;25.67;43.95;98086.34;5059674;28;9006;-75
2022/09/28 12:28:21;;;;;;;;;6.60;5.20;;;;;25.62;43.83;98083.22;5052324;28;8877;-70
2022/09/28 12:30:52;;;;;;;;;7.00;6.40;;;;;25.37;43.71;98084.47;5065794;28;9650;-75
2022/09/28 12:33:21;;;;;;;;;9.80;9.00;;;;;25.35;44.17;98078.41;5049672;28;8866;-76
2022/09/28 12:36:06;;;;;;;;;7.00;6.00;;;;;25.39;44.75;98074.50;5066782;28;8868;-73